sensor_id;sensor_type;location;lat;lon;timestamp;pressure;altitude;pressure_sealevel;temperature;humidity
69173;BME280;56280;49.662;8.408;2023-10-13T00:00:35;100668.19;;;19.88;73.71
69173;BME280;56280;49.662;8.408;2023-10-13T00:03:05;100656.00;;;19.77;73.79
69173;BME280;56280;49.662;8.408;2023-10-13T00:05:32;100649.91;;;19.75;73.58
69173;BME280;56280;49.662;8.408;2023-10-13T00:08:04;100648.75;;;19.78;73.60
69173;BME280;56280;49.662;8.408;2023-10-13T00:10:30;100672.22;;;19.92;73.63
69173;BME280;56280;49.662;8.408;2023-10-13T00:12:56;100667.19;;;19.89;73.53
69173;BME280;56280;49.662;8.408;2023-10-13T00:15:32;100666.53;;;19.87;73.32
69173;BME280;56280;49.662;8.408;2023-10-13T00:18:07;100643.34;;;19.78;73.62
69173;BME280;56280;49.662;8.408;2023-10-13T00:20:39;100597.03;;;19.51;73.47
69173;BME280;56280;49.662;8.408;2023-10-13T00:23:04;100654.59;;;19.81;73.52
69173;BME280;56280;49.662;8.408;2023-10-13T00:25:31;100629.91;;;19.70;73.66
69173;BME280;56280;49.662;8.408;2023-10-13T00:28:09;100621.72;;;19.63;73.48
69173;BME280;56280;49.662;8.408;2023-10-13T00:30:34;100650.25;;;19.80;73.47
69173;BME280;56280;49.662;8.408;2023-10-13T00:32:59;100643.75;;;19.66;73.72
69173;BME280;56280;49.662;8.408;2023-10-13T00:35:29;100652.59;;;19.75;73.53
69173;BME280;56280;49.662;8.408;2023-10-13T00:38:00;100623.00;;;19.67;73.67
69173;BME280;56280;49.662;8.408;2023-10-13T00:40:30;100653.78;;;19.81;73.69
69173;BME280;56280;49.662;8.408;2023-10-13T00:43:00;100652.75;;;19.82;73.93
69173;BME280;56280;49.662;8.408;2023-10-13T00:48:14;100634.75;;;19.74;73.66
69173;BME280;56280;49.662;8.408;2023-10-13T00:50:39;100648.03;;;19.84;73.76
69173;BME280;56280;49.662;8.408;2023-10-13T00:53:06;100641.59;;;19.85;73.77
69173;BME280;56280;49.662;8.408;2023-10-13T00:55:32;100601.69;;;19.57;73.71
69173;BME280;56280;49.662;8.408;2023-10-13T00:57:59;100648.31;;;19.89;73.61
69173;BME280;56280;49.662;8.408;2023-10-13T01:00:29;100631.38;;;19.80;73.72
69173;BME280;56280;49.662;8.408;2023-10-13T01:02:55;100623.94;;;19.82;73.54
69173;BME280;56280;49.662;8.408;2023-10-13T01:05:31;100623.94;;;19.82;73.60
69173;BME280;56280;49.662;8.408;2023-10-13T01:08:00;100601.09;;;19.70;73.70
69173;BME280;56280;49.662;8.408;2023-10-13T01:10:26;100627.09;;;19.86;73.72
69173;BME280;56280;49.662;8.408;2023-10-13T01:12:52;100622.13;;;19.75;73.65
69173;BME280;56280;49.662;8.408;2023-10-13T01:15:19;100621.78;;;19.78;74.05
69173;BME280;56280;49.662;8.408;2023-10-13T01:17:48;100603.97;;;19.68;74.07
69173;BME280;56280;49.662;8.408;2023-10-13T01:20:14;100624.59;;;19.84;73.83
69173;BME280;56280;49.662;8.408;2023-10-13T01:22:46;100624.59;;;19.84;73.94
69173;BME280;56280;49.662;8.408;2023-10-13T01:25:20;100589.19;;;19.64;74.15
69173;BME280;56280;49.662;8.408;2023-10-13T01:27:50;100612.97;;;19.84;74.06
69173;BME280;56280;49.662;8.408;2023-10-13T01:30:17;100595.34;;;19.73;74.03
69173;BME280;56280;49.662;8.408;2023-10-13T01:32:47;100610.66;;;19.81;73.90
69173;BME280;56280;49.662;8.408;2023-10-13T01:35:13;100593.66;;;19.72;73.92
69173;BME280;56280;49.662;8.408;2023-10-13T01:37:38;100595.00;;;19.76;73.97
69173;BME280;56280;49.662;8.408;2023-10-13T01:40:03;100574.13;;;19.55;74.08
69173;BME280;56280;49.662;8.408;2023-10-13T01:42:29;100599.41;;;19.77;74.21
69173;BME280;56280;49.662;8.408;2023-10-13T01:44:55;100557.28;;;19.53;73.86
69173;BME280;56280;49.662;8.408;2023-10-13T01:47:23;100550.94;;;19.46;73.99
69173;BME280;56280;49.662;8.408;2023-10-13T01:49:49;100589.50;;;19.70;73.68
69173;BME280;56280;49.662;8.408;2023-10-13T01:52:15;100596.16;;;19.74;73.62
69173;BME280;56280;49.662;8.408;2023-10-13T01:54:41;100577.88;;;19.69;73.87
69173;BME280;56280;49.662;8.408;2023-10-13T01:57:10;100574.03;;;19.63;73.62
69173;BME280;56280;49.662;8.408;2023-10-13T01:59:46;100577.38;;;19.65;74.03
69173;BME280;56280;49.662;8.408;2023-10-13T02:02:13;100584.47;;;19.66;73.92
69173;BME280;56280;49.662;8.408;2023-10-13T02:04:42;100577.75;;;19.62;73.90
69173;BME280;56280;49.662;8.408;2023-10-13T02:07:14;100565.66;;;19.58;73.62
69173;BME280;56280;49.662;8.408;2023-10-13T02:09:40;100581.59;;;19.68;73.59
69173;BME280;56280;49.662;8.408;2023-10-13T02:12:08;100572.00;;;19.65;74.05
69173;BME280;56280;49.662;8.408;2023-10-13T02:14:34;100559.13;;;19.53;73.47
69173;BME280;56280;49.662;8.408;2023-10-13T02:17:02;100542.13;;;19.52;73.60
69173;BME280;56280;49.662;8.408;2023-10-13T02:19:42;100570.34;;;19.64;73.75
69173;BME280;56280;49.662;8.408;2023-10-13T02:22:12;100563.63;;;19.60;73.72
69173;BME280;56280;49.662;8.408;2023-10-13T02:24:49;100568.53;;;19.57;73.38
69173;BME280;56280;49.662;8.408;2023-10-13T02:27:17;100562.56;;;19.46;73.90
69173;BME280;56280;49.662;8.408;2023-10-13T02:29:42;100556.69;;;19.43;73.91
69173;BME280;56280;49.662;8.408;2023-10-13T02:32:11;100543.53;;;19.25;74.19
69173;BME280;56280;49.662;8.408;2023-10-13T02:34:46;100541.31;;;19.28;74.11
69173;BME280;56280;49.662;8.408;2023-10-13T02:37:11;100556.47;;;19.29;74.58
69173;BME280;56280;49.662;8.408;2023-10-13T02:39:38;100563.38;;;19.24;74.80
69173;BME280;56280;49.662;8.408;2023-10-13T02:42:09;100558.06;;;19.16;74.90
69173;BME280;56280;49.662;8.408;2023-10-13T02:44:46;100541.63;;;19.10;74.75
69173;BME280;56280;49.662;8.408;2023-10-13T02:47:11;100540.31;;;19.06;74.80
69173;BME280;56280;49.662;8.408;2023-10-13T02:49:40;100547.53;;;19.06;74.93
69173;BME280;56280;49.662;8.408;2023-10-13T02:52:09;100530.19;;;18.85;74.89
69173;BME280;56280;49.662;8.408;2023-10-13T02:54:35;100518.03;;;18.89;74.67
69173;BME280;56280;49.662;8.408;2023-10-13T02:57:05;100512.19;;;18.86;74.88
69173;BME280;56280;49.662;8.408;2023-10-13T02:59:32;100532.47;;;18.97;74.92
69173;BME280;56280;49.662;8.408;2023-10-13T03:02:09;100535.88;;;18.90;74.97
69173;BME280;56280;49.662;8.408;2023-10-13T03:04:47;100521.41;;;18.83;75.29
69173;BME280;56280;49.662;8.408;2023-10-13T03:07:12;100528.31;;;18.86;74.90
69173;BME280;56280;49.662;8.408;2023-10-13T03:09:43;100517.41;;;18.79;74.83
69173;BME280;56280;49.662;8.408;2023-10-13T03:12:16;100540.09;;;18.85;75.07
69173;BME280;56280;49.662;8.408;2023-10-13T03:14:42;100533.19;;;18.82;74.98
69173;BME280;56280;49.662;8.408;2023-10-13T03:17:07;100524.31;;;18.73;75.08
69173;BME280;56280;49.662;8.408;2023-10-13T03:19:45;100529.81;;;18.80;75.22
69173;BME280;56280;49.662;8.408;2023-10-13T03:22:17;100527.31;;;18.78;75.28
69173;BME280;56280;49.662;8.408;2023-10-13T03:24:44;100500.63;;;18.69;75.23
69173;BME280;56280;49.662;8.408;2023-10-13T03:27:17;100521.44;;;18.75;75.24
69173;BME280;56280;49.662;8.408;2023-10-13T03:29:44;100508.16;;;18.73;75.18
69173;BME280;56280;49.662;8.408;2023-10-13T03:32:14;100511.50;;;18.75;75.12
69173;BME280;56280;49.662;8.408;2023-10-13T03:34:44;100513.03;;;18.78;75.17
69173;BME280;56280;49.662;8.408;2023-10-13T03:37:19;100513.56;;;18.73;75.39
69173;BME280;56280;49.662;8.408;2023-10-13T03:40:01;100503.13;;;18.70;75.44
69173;BME280;56280;49.662;8.408;2023-10-13T03:42:31;100490.25;;;18.57;75.50
69173;BME280;56280;49.662;8.408;2023-10-13T03:44:57;100489.91;;;18.61;75.73
69173;BME280;56280;49.662;8.408;2023-10-13T03:47:22;100491.13;;;18.58;75.52
69173;BME280;56280;49.662;8.408;2023-10-13T03:49:57;100489.75;;;18.62;75.93
69173;BME280;56280;49.662;8.408;2023-10-13T03:52:41;100481.00;;;18.60;75.45
69173;BME280;56280;49.662;8.408;2023-10-13T03:55:07;100472.50;;;18.48;76.24
69173;BME280;56280;49.662;8.408;2023-10-13T03:57:33;100455.09;;;18.36;76.09
69173;BME280;56280;49.662;8.408;2023-10-13T03:59:59;100470.31;;;18.52;75.87
69173;BME280;56280;49.662;8.408;2023-10-13T04:02:33;100482.88;;;18.59;76.14
69173;BME280;56280;49.662;8.408;2023-10-13T04:04:58;100440.59;;;18.37;75.64
69173;BME280;56280;49.662;8.408;2023-10-13T04:07:32;100466.22;;;18.56;75.51
69173;BME280;56280;49.662;8.408;2023-10-13T04:09:57;100488.03;;;18.69;75.34
69173;BME280;56280;49.662;8.408;2023-10-13T04:12:41;100489.22;;;18.67;74.91
69173;BME280;56280;49.662;8.408;2023-10-13T04:15:25;100472.75;;;18.62;75.04
69173;BME280;56280;49.662;8.408;2023-10-13T04:18:01;100468.09;;;18.55;74.82
69173;BME280;56280;49.662;8.408;2023-10-13T04:20:39;100495.00;;;18.78;74.84
69173;BME280;56280;49.662;8.408;2023-10-13T04:23:04;100487.63;;;18.81;74.81
69173;BME280;56280;49.662;8.408;2023-10-13T04:25:43;100462.31;;;18.67;74.46
69173;BME280;56280;49.662;8.408;2023-10-13T04:28:11;100485.44;;;18.84;74.52
69173;BME280;56280;49.662;8.408;2023-10-13T04:30:51;100473.66;;;18.77;75.03
69173;BME280;56280;49.662;8.408;2023-10-13T04:36:07;100461.47;;;18.66;75.53
69173;BME280;56280;49.662;8.408;2023-10-13T04:38:48;100450.22;;;18.63;75.74
69173;BME280;56280;49.662;8.408;2023-10-13T04:41:35;100462.59;;;18.72;75.79
69173;BME280;56280;49.662;8.408;2023-10-13T04:44:11;100445.63;;;18.71;75.74
69173;BME280;56280;49.662;8.408;2023-10-13T04:46:57;100456.88;;;18.75;75.70
69173;BME280;56280;49.662;8.408;2023-10-13T04:49:29;100439.72;;;18.76;75.22
69173;BME280;56280;49.662;8.408;2023-10-13T04:52:16;100436.31;;;18.82;75.08
69173;BME280;56280;49.662;8.408;2023-10-13T04:55:00;100417.16;;;18.77;74.51
69173;BME280;56280;49.662;8.408;2023-10-13T04:57:42;100447.09;;;19.05;74.44
69173;BME280;56280;49.662;8.408;2023-10-13T05:00:11;100439.84;;;19.06;73.91
69173;BME280;56280;49.662;8.408;2023-10-13T05:02:39;100445.03;;;19.07;74.18
69173;BME280;56280;49.662;8.408;2023-10-13T05:05:07;100410.66;;;18.94;74.01
69173;BME280;56280;49.662;8.408;2023-10-13T05:07:42;100434.63;;;19.04;74.04
69173;BME280;56280;49.662;8.408;2023-10-13T05:10:27;100420.34;;;19.04;74.03
69173;BME280;56280;49.662;8.408;2023-10-13T05:13:12;100418.38;;;18.98;74.08
69173;BME280;56280;49.662;8.408;2023-10-13T05:15:55;100427.94;;;19.00;74.25
69173;BME280;56280;49.662;8.408;2023-10-13T05:18:39;100429.13;;;18.98;74.23
69173;BME280;56280;49.662;8.408;2023-10-13T05:21:23;100416.56;;;18.90;74.19
69173;BME280;56280;49.662;8.408;2023-10-13T05:24:07;100418.47;;;18.81;74.49
69173;BME280;56280;49.662;8.408;2023-10-13T05:26:52;100404.44;;;18.71;74.99
69173;BME280;56280;49.662;8.408;2023-10-13T05:29:40;100413.81;;;18.75;74.79
69173;BME280;56280;49.662;8.408;2023-10-13T05:32:25;100390.19;;;18.62;74.91
69173;BME280;56280;49.662;8.408;2023-10-13T05:35:09;100401.44;;;18.66;75.13
69173;BME280;56280;49.662;8.408;2023-10-13T05:37:53;100407.75;;;18.50;76.06
69173;BME280;56280;49.662;8.408;2023-10-13T05:40:37;100406.28;;;18.47;76.41
69173;BME280;56280;49.662;8.408;2023-10-13T05:43:20;100402.78;;;18.38;76.05
69173;BME280;56280;49.662;8.408;2023-10-13T05:46:05;100420.06;;;18.44;76.22
69173;BME280;56280;49.662;8.408;2023-10-13T05:49:07;100413.34;;;18.48;75.99
69173;BME280;56280;49.662;8.408;2023-10-13T05:51:42;100417.03;;;18.47;75.85
69173;BME280;56280;49.662;8.408;2023-10-13T05:54:27;100418.72;;;18.48;76.36
69173;BME280;56280;49.662;8.408;2023-10-13T05:57:11;100377.75;;;18.38;75.73
69173;BME280;56280;49.662;8.408;2023-10-13T05:59:55;100405.22;;;18.56;75.52
69173;BME280;56280;49.662;8.408;2023-10-13T06:02:39;100389.78;;;18.50;75.26
69173;BME280;56280;49.662;8.408;2023-10-13T06:05:23;100411.66;;;18.70;75.20
69173;BME280;56280;49.662;8.408;2023-10-13T06:08:07;100399.78;;;18.65;75.19
69173;BME280;56280;49.662;8.408;2023-10-13T06:11:00;100407.97;;;18.71;75.04
69173;BME280;56280;49.662;8.408;2023-10-13T06:13:44;100379.97;;;18.57;74.72
69173;BME280;56280;49.662;8.408;2023-10-13T06:16:29;100403.69;;;18.77;74.49
69173;BME280;56280;49.662;8.408;2023-10-13T06:19:13;100416.16;;;18.78;74.49
69173;BME280;56280;49.662;8.408;2023-10-13T06:21:57;100411.94;;;18.84;73.96
69173;BME280;56280;49.662;8.408;2023-10-13T06:24:40;100410.19;;;18.91;73.26
69173;BME280;56280;49.662;8.408;2023-10-13T06:27:25;100406.88;;;19.04;72.44
69173;BME280;56280;49.662;8.408;2023-10-13T06:30:09;100425.50;;;19.28;71.68
69173;BME280;56280;49.662;8.408;2023-10-13T06:32:34;100429.06;;;19.44;71.22
69173;BME280;56280;49.662;8.408;2023-10-13T06:35:05;100436.25;;;19.66;70.44
69173;BME280;56280;49.662;8.408;2023-10-13T06:37:43;100419.06;;;19.82;69.69
69173;BME280;56280;49.662;8.408;2023-10-13T06:40:10;100432.25;;;20.07;68.94
69173;BME280;56280;49.662;8.408;2023-10-13T06:42:52;100423.28;;;20.21;67.20
69173;BME280;56280;49.662;8.408;2023-10-13T06:45:18;100438.44;;;20.37;66.30
69173;BME280;56280;49.662;8.408;2023-10-13T06:47:45;100421.16;;;20.32;65.71
69173;BME280;56280;49.662;8.408;2023-10-13T06:50:14;100427.59;;;20.52;64.81
69173;BME280;56280;49.662;8.408;2023-10-13T06:52:48;100426.91;;;20.65;64.12
69173;BME280;56280;49.662;8.408;2023-10-13T06:55:14;100423.66;;;20.70;62.90
69173;BME280;56280;49.662;8.408;2023-10-13T06:57:45;100444.03;;;20.94;62.68
69173;BME280;56280;49.662;8.408;2023-10-13T07:00:12;100423.75;;;20.83;61.67
69173;BME280;56280;49.662;8.408;2023-10-13T07:02:51;100413.75;;;20.77;60.93
69173;BME280;56280;49.662;8.408;2023-10-13T07:05:18;100424.19;;;20.80;60.46
69173;BME280;56280;49.662;8.408;2023-10-13T07:07:44;100422.91;;;21.26;61.82
69173;BME280;56280;49.662;8.408;2023-10-13T07:10:11;100385.75;;;21.06;59.85
69173;BME280;56280;49.662;8.408;2023-10-13T07:12:37;100421.22;;;21.25;59.67
69173;BME280;56280;49.662;8.408;2023-10-13T07:15:03;100422.91;;;21.26;59.74
69173;BME280;56280;49.662;8.408;2023-10-13T07:17:49;100414.41;;;21.07;59.45
69173;BME280;56280;49.662;8.408;2023-10-13T07:20:20;100432.56;;;21.13;59.55
69173;BME280;56280;49.662;8.408;2023-10-13T07:22:58;100425.78;;;21.24;59.68
69173;BME280;56280;49.662;8.408;2023-10-13T07:25:29;100437.38;;;21.75;58.98
69173;BME280;56280;49.662;8.408;2023-10-13T07:28:00;100423.00;;;22.09;58.83
69173;BME280;56280;49.662;8.408;2023-10-13T07:30:26;100429.00;;;22.46;57.40
69173;BME280;56280;49.662;8.408;2023-10-13T07:32:53;100416.56;;;22.79;56.97
69173;BME280;56280;49.662;8.408;2023-10-13T07:35:22;100438.69;;;23.09;55.29
69173;BME280;56280;49.662;8.408;2023-10-13T07:37:50;100403.22;;;23.04;54.81
69173;BME280;56280;49.662;8.408;2023-10-13T07:40:25;100428.47;;;23.11;54.54
69173;BME280;56280;49.662;8.408;2023-10-13T07:42:50;100365.31;;;22.84;55.27
69173;BME280;56280;49.662;8.408;2023-10-13T07:45:16;100407.00;;;23.09;54.71
69173;BME280;56280;49.662;8.408;2023-10-13T07:47:51;100422.63;;;23.01;54.88
69173;BME280;56280;49.662;8.408;2023-10-13T07:50:16;100418.66;;;22.83;55.50
69173;BME280;56280;49.662;8.408;2023-10-13T07:52:51;100421.13;;;22.71;55.99
69173;BME280;56280;49.662;8.408;2023-10-13T07:55:31;100417.78;;;22.63;56.66
69173;BME280;56280;49.662;8.408;2023-10-13T07:57:59;100423.38;;;22.54;57.02
69173;BME280;56280;49.662;8.408;2023-10-13T08:00:32;100431.28;;;22.49;56.52
69173;BME280;56280;49.662;8.408;2023-10-13T08:03:15;100437.69;;;22.35;57.00
69173;BME280;56280;49.662;8.408;2023-10-13T08:05:41;100429.34;;;22.30;57.03
69173;BME280;56280;49.662;8.408;2023-10-13T08:08:25;100415.34;;;22.19;56.99
69173;BME280;56280;49.662;8.408;2023-10-13T08:11:09;100398.88;;;22.14;57.03
69173;BME280;56280;49.662;8.408;2023-10-13T08:13:57;100412.16;;;22.84;55.63
69173;BME280;56280;49.662;8.408;2023-10-13T08:16:36;100399.09;;;23.35;55.06
69173;BME280;56280;49.662;8.408;2023-10-13T08:19:17;100405.72;;;23.45;54.42
69173;BME280;56280;49.662;8.408;2023-10-13T08:21:47;100407.53;;;23.85;53.95
69173;BME280;56280;49.662;8.408;2023-10-13T08:24:19;100404.41;;;24.33;52.12
69173;BME280;56280;49.662;8.408;2023-10-13T08:26:52;100388.75;;;24.29;51.51
69173;BME280;56280;49.662;8.408;2023-10-13T08:29:24;100407.13;;;24.72;51.42
69173;BME280;56280;49.662;8.408;2023-10-13T08:31:55;100401.03;;;24.77;51.31
69173;BME280;56280;49.662;8.408;2023-10-13T08:34:47;100386.88;;;24.29;50.72
69173;BME280;56280;49.662;8.408;2023-10-13T08:37:13;100390.94;;;24.07;51.29
69173;BME280;56280;49.662;8.408;2023-10-13T08:39:55;100410.47;;;24.29;50.39
69173;BME280;56280;49.662;8.408;2023-10-13T08:42:31;100398.53;;;24.36;50.52
69173;BME280;56280;49.662;8.408;2023-10-13T08:45:13;100394.53;;;24.46;49.78
69173;BME280;56280;49.662;8.408;2023-10-13T08:47:55;100407.88;;;24.40;49.70
69173;BME280;56280;49.662;8.408;2023-10-13T08:50:46;100402.25;;;24.42;50.53
69173;BME280;56280;49.662;8.408;2023-10-13T08:53:18;100403.66;;;24.58;49.63
69173;BME280;56280;49.662;8.408;2023-10-13T08:58:34;100351.50;;;24.43;49.52
69173;BME280;56280;49.662;8.408;2023-10-13T09:01:23;100393.03;;;24.82;49.73
69173;BME280;56280;49.662;8.408;2023-10-13T09:04:07;100366.88;;;24.55;49.43
69173;BME280;56280;49.662;8.408;2023-10-13T09:09:23;100335.91;;;24.63;49.04
69173;BME280;56280;49.662;8.408;2023-10-13T09:12:18;100367.50;;;24.89;49.27
69173;BME280;56280;49.662;8.408;2023-10-13T09:14:55;100360.44;;;25.07;49.77
69173;BME280;56280;49.662;8.408;2023-10-13T09:17:27;100350.91;;;25.16;49.05
69173;BME280;56280;49.662;8.408;2023-10-13T09:20:05;100337.34;;;25.16;48.72
69173;BME280;56280;49.662;8.408;2023-10-13T09:22:53;100335.72;;;25.34;48.25
69173;BME280;56280;49.662;8.408;2023-10-13T09:25:31;100325.22;;;25.56;47.88
69173;BME280;56280;49.662;8.408;2023-10-13T09:28:10;100319.41;;;25.34;48.66
69173;BME280;56280;49.662;8.408;2023-10-13T09:30:47;100318.63;;;25.26;47.96
69173;BME280;56280;49.662;8.408;2023-10-13T09:33:12;100299.94;;;25.37;47.33
69173;BME280;56280;49.662;8.408;2023-10-13T09:35:44;100290.59;;;25.26;46.88
69173;BME280;56280;49.662;8.408;2023-10-13T09:38:15;100310.56;;;25.38;47.80
69173;BME280;56280;49.662;8.408;2023-10-13T09:40:42;100298.50;;;25.34;47.97
69173;BME280;56280;49.662;8.408;2023-10-13T09:43:16;100302.19;;;25.40;47.67
69173;BME280;56280;49.662;8.408;2023-10-13T09:45:45;100295.03;;;25.45;48.75
69173;BME280;56280;49.662;8.408;2023-10-13T09:48:39;100279.09;;;25.49;48.09
69173;BME280;56280;49.662;8.408;2023-10-13T09:51:18;100301.50;;;25.63;46.92
69173;BME280;56280;49.662;8.408;2023-10-13T09:53:59;100282.13;;;25.71;46.63
69173;BME280;56280;49.662;8.408;2023-10-13T09:56:57;100295.81;;;25.83;46.32
69173;BME280;56280;49.662;8.408;2023-10-13T09:59:32;100275.31;;;25.80;46.03
69173;BME280;56280;49.662;8.408;2023-10-13T10:02:06;100294.72;;;26.02;46.12
69173;BME280;56280;49.662;8.408;2023-10-13T10:04:51;100289.44;;;25.89;45.52
69173;BME280;56280;49.662;8.408;2023-10-13T10:07:27;100285.63;;;26.09;45.69
69173;BME280;56280;49.662;8.408;2023-10-13T10:10:00;100291.41;;;26.00;45.59
69173;BME280;56280;49.662;8.408;2023-10-13T10:15:34;100288.16;;;26.22;46.02
69173;BME280;56280;49.662;8.408;2023-10-13T10:18:01;100290.31;;;26.32;44.99
69173;BME280;56280;49.662;8.408;2023-10-13T10:20:34;100295.06;;;26.36;45.50
69173;BME280;56280;49.662;8.408;2023-10-13T10:23:27;100285.16;;;26.54;45.42
69173;BME280;56280;49.662;8.408;2023-10-13T10:25:54;100284.44;;;26.59;45.55
69173;BME280;56280;49.662;8.408;2023-10-13T10:28:41;100279.56;;;26.61;45.94
69173;BME280;56280;49.662;8.408;2023-10-13T10:31:10;100282.25;;;26.79;45.50
69173;BME280;56280;49.662;8.408;2023-10-13T10:33:42;100284.22;;;26.84;45.65
69173;BME280;56280;49.662;8.408;2023-10-13T10:36:08;100269.19;;;26.93;46.36
69173;BME280;56280;49.662;8.408;2023-10-13T10:38:56;100273.28;;;27.19;45.19
69173;BME280;56280;49.662;8.408;2023-10-13T10:41:30;100263.59;;;27.11;44.71
69173;BME280;56280;49.662;8.408;2023-10-13T10:44:15;100249.97;;;27.00;44.59
69173;BME280;56280;49.662;8.408;2023-10-13T10:47:09;100235.72;;;27.09;44.23
69173;BME280;56280;49.662;8.408;2023-10-13T10:49:37;100249.59;;;27.32;43.36
69173;BME280;56280;49.662;8.408;2023-10-13T10:52:03;100215.34;;;27.12;43.74
69173;BME280;56280;49.662;8.408;2023-10-13T10:54:32;100221.00;;;27.22;43.50
69173;BME280;56280;49.662;8.408;2023-10-13T10:56:59;100228.56;;;27.44;42.83
69173;BME280;56280;49.662;8.408;2023-10-13T10:59:43;100241.03;;;27.40;42.90
69173;BME280;56280;49.662;8.408;2023-10-13T11:02:09;100209.56;;;27.08;43.31
69173;BME280;56280;49.662;8.408;2023-10-13T11:04:40;100226.47;;;27.22;43.41
69173;BME280;56280;49.662;8.408;2023-10-13T11:07:20;100226.81;;;27.38;43.17
69173;BME280;56280;49.662;8.408;2023-10-13T11:09:46;100230.59;;;27.49;41.82
69173;BME280;56280;49.662;8.408;2023-10-13T11:12:13;100224.00;;;27.61;42.19
69173;BME280;56280;49.662;8.408;2023-10-13T11:14:48;100221.44;;;27.55;42.32
69173;BME280;56280;49.662;8.408;2023-10-13T11:17:22;100206.66;;;27.39;42.35
69173;BME280;56280;49.662;8.408;2023-10-13T11:20:11;100210.53;;;27.43;42.19
69173;BME280;56280;49.662;8.408;2023-10-13T11:22:47;100198.47;;;27.39;41.95
69173;BME280;56280;49.662;8.408;2023-10-13T11:25:23;100207.72;;;27.67;41.27
69173;BME280;56280;49.662;8.408;2023-10-13T11:27:57;100187.53;;;27.68;42.08
69173;BME280;56280;49.662;8.408;2023-10-13T11:30:25;100205.25;;;27.82;41.95
69173;BME280;56280;49.662;8.408;2023-10-13T11:33:00;100196.16;;;28.05;41.86
69173;BME280;56280;49.662;8.408;2023-10-13T11:35:26;100177.59;;;27.90;41.88
69173;BME280;56280;49.662;8.408;2023-10-13T11:37:55;100163.63;;;28.04;41.63
69173;BME280;56280;49.662;8.408;2023-10-13T11:40:38;100175.47;;;28.26;41.77
69173;BME280;56280;49.662;8.408;2023-10-13T11:43:35;100144.59;;;28.26;41.19
69173;BME280;56280;49.662;8.408;2023-10-13T11:46:22;100163.69;;;28.60;41.04
69173;BME280;56280;49.662;8.408;2023-10-13T11:49:11;100162.41;;;28.67;40.98
69173;BME280;56280;49.662;8.408;2023-10-13T11:51:52;100157.84;;;28.56;40.66
69173;BME280;56280;49.662;8.408;2023-10-13T11:54:27;100163.00;;;28.69;40.37
69173;BME280;56280;49.662;8.408;2023-10-13T11:56:52;100159.69;;;28.89;41.07
69173;BME280;56280;49.662;8.408;2023-10-13T11:59:17;100140.13;;;28.76;40.29
69173;BME280;56280;49.662;8.408;2023-10-13T12:01:46;100135.53;;;28.81;39.69
69173;BME280;56280;49.662;8.408;2023-10-13T12:04:30;100139.25;;;28.92;39.67
69173;BME280;56280;49.662;8.408;2023-10-13T12:06:58;100113.47;;;28.88;39.08
69173;BME280;56280;49.662;8.408;2023-10-13T12:09:42;100123.44;;;28.99;39.33
69173;BME280;56280;49.662;8.408;2023-10-13T12:12:17;100130.59;;;29.00;38.41
69173;BME280;56280;49.662;8.408;2023-10-13T12:14:42;100134.13;;;29.01;37.78
69173;BME280;56280;49.662;8.408;2023-10-13T12:17:21;100071.09;;;28.63;37.15
69173;BME280;56280;49.662;8.408;2023-10-13T12:19:54;100092.81;;;28.75;36.34
69173;BME280;56280;49.662;8.408;2023-10-13T12:22:20;100103.75;;;28.75;37.64
69173;BME280;56280;49.662;8.408;2023-10-13T12:25:04;100102.78;;;28.86;36.82
69173;BME280;56280;49.662;8.408;2023-10-13T12:27:31;100102.94;;;28.97;35.88
69173;BME280;56280;49.662;8.408;2023-10-13T12:30:11;100102.16;;;29.01;38.47
69173;BME280;56280;49.662;8.408;2023-10-13T12:32:41;100095.88;;;28.79;36.97
69173;BME280;56280;49.662;8.408;2023-10-13T12:35:19;100099.56;;;28.89;36.99
69173;BME280;56280;49.662;8.408;2023-10-13T12:38:01;100070.00;;;28.86;35.70
69173;BME280;56280;49.662;8.408;2023-10-13T12:40:41;100086.03;;;29.00;37.35
69173;BME280;56280;49.662;8.408;2023-10-13T12:43:26;100074.25;;;28.99;36.25
69173;BME280;56280;49.662;8.408;2023-10-13T12:46:10;100057.44;;;28.85;35.97
69173;BME280;56280;49.662;8.408;2023-10-13T12:48:54;100074.53;;;29.03;35.54
69173;BME280;56280;49.662;8.408;2023-10-13T12:51:38;100053.09;;;28.67;35.27
69173;BME280;56280;49.662;8.408;2023-10-13T12:54:03;100064.16;;;28.78;35.46
69173;BME280;56280;49.662;8.408;2023-10-13T12:56:39;100044.44;;;28.53;35.33
69173;BME280;56280;49.662;8.408;2023-10-13T12:59:10;100068.88;;;28.82;34.96
69173;BME280;56280;49.662;8.408;2023-10-13T13:01:39;100067.31;;;28.91;35.31
69173;BME280;56280;49.662;8.408;2023-10-13T13:04:07;100046.25;;;28.87;35.76
69173;BME280;56280;49.662;8.408;2023-10-13T13:06:36;100019.25;;;28.96;36.07
69173;BME280;56280;49.662;8.408;2023-10-13T13:09:02;100063.88;;;29.01;35.73
69173;BME280;56280;49.662;8.408;2023-10-13T13:11:27;100044.22;;;29.04;36.00
69173;BME280;56280;49.662;8.408;2023-10-13T13:13:56;100049.25;;;29.13;35.43
69173;BME280;56280;49.662;8.408;2023-10-13T13:16:22;100040.16;;;29.34;34.43
69173;BME280;56280;49.662;8.408;2023-10-13T13:18:50;100028.13;;;29.08;32.83
69173;BME280;56280;49.662;8.408;2023-10-13T13:21:15;100035.22;;;29.09;32.12
69173;BME280;56280;49.662;8.408;2023-10-13T13:23:49;100021.31;;;29.10;31.10
69173;BME280;56280;49.662;8.408;2023-10-13T13:26:15;100022.44;;;29.15;29.61
69173;BME280;56280;49.662;8.408;2023-10-13T13:28:47;100032.88;;;29.18;29.34
69173;BME280;56280;49.662;8.408;2023-10-13T13:31:22;100009.53;;;28.83;29.33
69173;BME280;56280;49.662;8.408;2023-10-13T13:33:51;100035.03;;;28.88;29.72
69173;BME280;56280;49.662;8.408;2023-10-13T13:36:17;100038.94;;;28.98;29.75
69173;BME280;56280;49.662;8.408;2023-10-13T13:38:43;100015.97;;;28.94;30.16